createdAt,value
2022-09-12T00:01:25.564Z,99111.85
2022-09-12T00:03:55.357Z,99111.02
2022-09-12T00:06:30.014Z,99108.95
2022-09-12T00:09:01.426Z,99108.13
2022-09-12T00:11:29.174Z,99110.34
2022-09-12T00:13:59.857Z,99108.66
2022-09-12T00:16:31.264Z,99108.02
2022-09-12T00:18:59.402Z,99106.77
2022-09-12T00:21:27.852Z,99102.02
2022-09-12T00:23:55.517Z,99099.86
2022-09-12T00:26:22.871Z,99091.48
2022-09-12T00:28:50.440Z,99095.27
2022-09-12T00:31:26.248Z,99092.40
2022-09-12T00:34:00.153Z,99099.77
2022-09-12T00:36:28.933Z,99097.61
2022-09-12T00:38:56.387Z,99100.73
2022-09-12T00:41:28.600Z,99103.89
2022-09-12T00:43:59.745Z,99105.39
2022-09-12T00:46:35.905Z,99105.73
2022-09-12T00:49:19.783Z,99110.78
2022-09-12T00:51:57.282Z,99105.20
2022-09-12T00:54:31.917Z,99105.13
2022-09-12T00:57:06.488Z,99100.46
2022-09-12T00:59:41.168Z,99095.30
2022-09-12T01:02:08.848Z,99089.67
2022-09-12T01:04:38.659Z,99088.91
2022-09-12T01:07:07.585Z,99090.33
2022-09-12T01:09:37.548Z,99096.91
2022-09-12T01:12:05.753Z,99096.80
2022-09-12T01:14:32.976Z,99094.58
2022-09-12T01:17:00.637Z,99094.03
2022-09-12T01:20:05.980Z,99090.84
2022-09-12T01:23:23.873Z,99090.98
2022-09-12T01:26:25.988Z,99085.71
2022-09-12T01:29:21.702Z,99090.54
2022-09-12T01:31:54.812Z,99090.88
2022-09-12T01:34:56.504Z,99086.88
2022-09-12T01:37:34.263Z,99084.18
2022-09-12T01:40:12.401Z,99083.11
2022-09-12T01:43:02.857Z,99078.64
2022-09-12T01:45:45.523Z,99085.25
2022-09-12T01:48:20.141Z,99088.45
2022-09-12T01:51:10.347Z,99093.75
2022-09-12T01:53:47.620Z,99090.43
2022-09-12T01:56:25.542Z,99095.45
2022-09-12T01:59:16.790Z,99096.58
2022-09-12T02:02:01.430Z,99099.58
2022-09-12T02:04:35.618Z,99099.90
2022-09-12T02:07:43.058Z,99101.42
2022-09-12T02:10:19.264Z,99106.09
2022-09-12T02:13:01.215Z,99105.11
2022-09-12T02:15:39.731Z,99102.46
2022-09-12T02:18:11.910Z,99100.78
2022-09-12T02:20:49.091Z,99099.29
2022-09-12T02:23:41.578Z,99100.85
2022-09-12T02:26:20.197Z,99098.20
2022-09-12T02:28:48.369Z,99100.67
2022-09-12T02:31:31.484Z,99098.41
2022-09-12T02:34:21.801Z,99104.59
2022-09-12T02:37:17.944Z,99107.41
2022-09-12T02:39:45.602Z,99106.33
2022-09-12T02:42:13.320Z,99110.23
2022-09-12T02:44:41.334Z,99112.23
2022-09-12T02:47:19.977Z,99112.91
2022-09-12T02:49:49.532Z,99124.94
2022-09-12T02:52:17.506Z,99126.06
2022-09-12T02:54:45.475Z,99124.65
2022-09-12T02:57:23.055Z,99126.77
2022-09-12T02:59:56.821Z,99120.44
2022-09-12T03:03:29.812Z,99124.45
2022-09-12T03:06:03.165Z,99120.80
2022-09-12T03:09:00.965Z,99126.27
2022-09-12T03:12:13.591Z,99123.99
2022-09-12T03:15:17.503Z,99124.05
2022-09-12T03:18:10.818Z,99128.18
2022-09-12T03:20:45.185Z,99129.77
2022-09-12T03:23:38.917Z,99128.35
2022-09-12T03:26:15.732Z,99128.95
2022-09-12T03:28:45.213Z,99132.85
2022-09-12T03:31:19.222Z,99136.21
2022-09-12T03:33:46.705Z,99133.89
2022-09-12T03:36:23.684Z,99133.79
2022-09-12T03:38:51.719Z,99135.99
2022-09-12T03:41:19.622Z,99138.48
2022-09-12T03:43:47.080Z,99140.27
2022-09-12T03:46:14.638Z,99146.68
2022-09-12T03:48:41.790Z,99149.70
2022-09-12T03:51:14.928Z,99157.33
2022-09-12T03:53:43.973Z,99154.15
2022-09-12T03:56:12.657Z,99156.21
2022-09-12T03:58:40.827Z,99160.81
2022-09-12T04:01:17.699Z,99164.71
2022-09-12T04:03:48.954Z,99161.90
2022-09-12T04:06:19.892Z,99169.00
2022-09-12T04:08:54.419Z,99170.35
2022-09-12T04:11:22.576Z,99168.52
2022-09-12T04:13:50.088Z,99170.52
2022-09-12T04:16:18.865Z,99164.66
2022-09-12T04:18:47.699Z,99165.54
2022-09-12T04:21:21.585Z,99166.40
2022-09-12T04:23:49.025Z,99164.71
2022-09-12T04:26:18.012Z,99168.89
2022-09-12T04:28:46.107Z,99169.16
2022-09-12T04:31:20.212Z,99166.83
2022-09-12T04:33:48.058Z,99163.25
2022-09-12T04:36:17.152Z,99175.23
2022-09-12T04:38:46.992Z,99180.64
2022-09-12T04:41:26.800Z,99182.16
2022-09-12T04:44:07.665Z,99192.36
2022-09-12T04:46:39.965Z,99193.06
2022-09-12T04:49:07.693Z,99192.73
2022-09-12T04:51:38.549Z,99194.58
2022-09-12T04:54:10.686Z,99198.37
2022-09-12T04:56:39.989Z,99198.38
2022-09-12T04:59:08.437Z,99195.71
2022-09-12T05:01:42.990Z,99201.04
2022-09-12T05:04:12.561Z,99199.52
2022-09-12T05:06:40.982Z,99202.05
2022-09-12T05:09:11.772Z,99202.54
2022-09-12T05:14:31.972Z,99207.84
2022-09-12T05:17:00.919Z,99207.05
2022-09-12T05:19:29.808Z,99196.09
2022-09-12T05:21:57.025Z,99204.09
2022-09-12T05:24:24.197Z,99214.54
2022-09-12T05:26:51.276Z,99215.40
2022-09-12T05:29:18.660Z,99218.92
2022-09-12T05:31:46.092Z,99212.42
2022-09-12T05:34:14.026Z,99223.37
2022-09-12T05:36:41.765Z,99219.25
2022-09-12T05:39:09.189Z,99219.72
2022-09-12T05:41:38.462Z,99215.21
2022-09-12T05:44:11.091Z,99205.13
2022-09-12T05:46:44.380Z,99214.61
2022-09-12T05:49:14.182Z,99220.14
2022-09-12T05:51:45.365Z,99222.91
2022-09-12T05:54:18.563Z,99217.42
2022-09-12T05:56:47.011Z,99218.49
2022-09-12T05:59:21.766Z,99217.66
2022-09-12T06:01:49.509Z,99212.09
2022-09-12T06:04:17.996Z,99211.35
2022-09-12T06:06:48.927Z,99216.95
2022-09-12T06:09:17.349Z,99224.15
2022-09-12T06:11:46.073Z,99220.16
2022-09-12T06:14:17.328Z,99217.08
2022-09-12T06:16:45.117Z,99222.33
2022-09-12T06:19:19.549Z,99219.66
2022-09-12T06:21:49.308Z,99224.55
2022-09-12T06:24:18.090Z,99223.41
2022-09-12T06:26:46.692Z,99222.80
2022-09-12T06:29:14.333Z,99212.77
2022-09-12T06:31:43.125Z,99217.64
2022-09-12T06:34:13.699Z,99210.98
2022-09-12T06:36:45.220Z,99214.83
2022-09-12T06:39:21.382Z,99213.52
2022-09-12T06:41:51.066Z,99222.16
2022-09-12T06:44:21.929Z,99224.81
2022-09-12T06:46:50.125Z,99229.42
2022-09-12T06:49:22.201Z,99225.52
2022-09-12T06:51:49.981Z,99237.30
2022-09-12T06:54:17.906Z,99232.26
2022-09-12T06:56:45.489Z,99235.83
2022-09-12T06:59:12.719Z,99235.34
2022-09-12T07:01:41.536Z,99224.12
2022-09-12T07:04:09.229Z,99224.09
2022-09-12T07:06:40.451Z,99225.32
2022-09-12T07:09:12.045Z,99220.21
2022-09-12T07:11:44.356Z,99222.77
2022-09-12T07:14:13.936Z,99226.78
2022-09-12T07:16:41.564Z,99228.41
2022-09-12T07:19:10.252Z,99226.67
2022-09-12T07:21:42.031Z,99231.71
2022-09-12T07:24:10.879Z,99224.61
2022-09-12T07:26:40.293Z,99229.70
2022-09-12T07:32:02.136Z,99234.31
2022-09-12T07:34:29.244Z,99233.72
2022-09-12T07:36:56.276Z,99233.08
2022-09-12T07:39:23.503Z,99240.45
2022-09-12T07:41:51.191Z,99233.94
2022-09-12T07:44:18.427Z,99243.02
2022-09-12T07:46:46.068Z,99239.17
2022-09-12T07:49:13.413Z,99243.78
2022-09-12T07:51:43.430Z,99241.31
2022-09-12T07:54:11.439Z,99242.10
2022-09-12T07:56:39.554Z,99230.94
2022-09-12T07:59:09.933Z,99230.68
2022-09-12T08:01:37.163Z,99229.45
2022-09-12T08:04:05.677Z,99229.59
2022-09-12T08:06:35.363Z,99233.92
2022-09-12T08:09:04.623Z,99233.60
2022-09-12T08:11:32.537Z,99231.29
2022-09-12T08:14:02.586Z,99225.73
2022-09-12T08:16:33.701Z,99229.40
2022-09-12T08:19:03.162Z,99228.10
2022-09-12T08:21:31.499Z,99225.70
2022-09-12T08:24:03.273Z,99224.30
2022-09-12T08:26:33.100Z,99223.37
2022-09-12T08:29:00.352Z,99224.45
2022-09-12T08:31:28.244Z,99223.06
2022-09-12T08:33:58.021Z,99229.41
2022-09-12T08:36:27.594Z,99222.41
2022-09-12T08:39:02.469Z,99223.01
2022-09-12T08:41:42.772Z,99226.50
2022-09-12T08:44:24.890Z,99224.78
2022-09-12T08:47:16.794Z,99221.63
2022-09-12T08:50:08.325Z,99219.84
2022-09-12T08:52:58.310Z,99223.14
2022-09-12T08:55:43.316Z,99225.08
2022-09-12T08:58:15.709Z,99224.99
2022-09-12T09:00:49.605Z,99214.81
2022-09-12T09:03:56.222Z,99222.02
2022-09-12T09:06:46.252Z,99216.56
2022-09-12T09:09:46.800Z,99213.84
2022-09-12T09:12:47.496Z,99214.40
2022-09-12T09:15:59.800Z,99216.46
2022-09-12T09:18:34.986Z,99214.27
2022-09-12T09:21:14.712Z,99210.33
2022-09-12T09:23:46.645Z,99212.38
2022-09-12T09:26:25.973Z,99209.45
2022-09-12T09:29:14.542Z,99209.58
2022-09-12T09:31:42.343Z,99214.12
2022-09-12T09:34:29.524Z,99215.38
2022-09-12T09:37:49.132Z,99219.14
2022-09-12T09:40:32.844Z,99220.70
2022-09-12T09:43:18.400Z,99225.73
2022-09-12T09:45:47.865Z,99220.89
2022-09-12T09:48:41.320Z,99220.45
2022-09-12T09:51:09.271Z,99214.51
2022-09-12T09:53:53.658Z,99219.44
2022-09-12T09:56:37.837Z,99216.50
2022-09-12T09:59:34.029Z,99212.36
2022-09-12T10:02:26.064Z,99217.73
2022-09-12T10:04:58.545Z,99220.39
2022-09-12T10:07:26.516Z,99216.23
2022-09-12T10:10:10.201Z,99219.20
2022-09-12T10:12:37.666Z,99209.07
2022-09-12T10:15:22.567Z,99215.98
2022-09-12T10:17:51.528Z,99215.92
2022-09-12T10:20:45.211Z,99215.48
2022-09-12T10:23:37.009Z,99220.72
2022-09-12T10:26:10.886Z,99221.78
2022-09-12T10:28:45.494Z,99221.68
2022-09-12T10:31:28.408Z,99227.61
2022-09-12T10:33:59.591Z,99228.98
2022-09-12T10:36:38.293Z,99232.29
2022-09-12T10:39:06.192Z,99230.67
2022-09-12T10:41:39.477Z,99243.65
2022-09-12T10:44:35.077Z,99238.96
2022-09-12T10:47:24.470Z,99237.14
2022-09-12T10:49:51.718Z,99236.69
2022-09-12T10:52:24.453Z,99234.05
2022-09-12T10:54:53.452Z,99237.32
2022-09-12T10:57:48.670Z,99234.73
2022-09-12T11:00:19.832Z,99242.33
2022-09-12T11:02:58.311Z,99236.84
2022-09-12T11:05:55.100Z,99235.89
2022-09-12T11:08:28.358Z,99234.36
2022-09-12T11:11:34.304Z,99238.72
2022-09-12T11:14:10.453Z,99237.27
2022-09-12T11:16:45.914Z,99237.93
2022-09-12T11:19:37.227Z,99229.48
2022-09-12T11:22:13.034Z,99233.60
2022-09-12T11:25:30.516Z,99239.77
2022-09-12T11:28:25.845Z,99238.68
2022-09-12T11:31:44.130Z,99238.91
2022-09-12T11:34:18.859Z,99238.74
2022-09-12T11:36:51.456Z,99236.05
2022-09-12T11:39:35.354Z,99231.02
2022-09-12T11:42:10.620Z,99233.42
2022-09-12T11:44:44.660Z,99239.95
2022-09-12T11:47:13.621Z,99235.48
2022-09-12T11:49:50.389Z,99237.63
2022-09-12T11:52:23.839Z,99240.60
2022-09-12T11:55:17.449Z,99239.50
2022-09-12T11:57:56.685Z,99246.25
2022-09-12T12:00:36.562Z,99248.10
2022-09-12T12:03:06.130Z,99242.63
2022-09-12T12:05:51.798Z,99240.58
2022-09-12T12:08:22.798Z,99244.89
2022-09-12T12:10:59.841Z,99241.73
2022-09-12T12:13:40.447Z,99246.86
2022-09-12T12:16:24.177Z,99259.98
2022-09-12T12:19:06.473Z,99256.66
2022-09-12T12:21:41.802Z,99270.36
2022-09-12T12:24:09.033Z,99263.98
2022-09-12T12:26:39.717Z,99263.52
2022-09-12T12:29:34.506Z,99263.46
2022-09-12T12:32:02.130Z,99261.31
2022-09-12T12:34:39.618Z,99266.30
2022-09-12T12:37:19.866Z,99259.36
2022-09-12T12:39:49.977Z,99265.37
2022-09-12T12:42:32.617Z,99261.34
2022-09-12T12:45:08.785Z,99266.44
2022-09-12T12:47:46.932Z,99258.80
2022-09-12T12:50:28.794Z,99248.95
2022-09-12T12:53:04.302Z,99247.79
2022-09-12T12:55:43.515Z,99248.48
2022-09-12T12:58:37.744Z,99247.48
2022-09-12T13:01:16.528Z,99243.48
2022-09-12T13:03:51.918Z,99247.66
2022-09-12T13:06:38.036Z,99249.61
2022-09-12T13:09:17.502Z,99247.34
2022-09-12T13:11:45.385Z,99246.74
2022-09-12T13:14:58.120Z,99249.45
2022-09-12T13:17:37.720Z,99250.81
2022-09-12T13:20:29.628Z,99251.17
2022-09-12T13:22:57.753Z,99259.55
2022-09-12T13:25:32.634Z,99254.96
2022-09-12T13:28:03.220Z,99255.91
2022-09-12T13:30:36.524Z,99255.55
2022-09-12T13:33:47.536Z,99258.55
2022-09-12T13:36:23.845Z,99267.66
2022-09-12T13:39:08.829Z,99272.86
2022-09-12T13:42:04.882Z,99274.69
2022-09-12T13:44:44.698Z,99277.55
2022-09-12T13:47:41.548Z,99284.06
2022-09-12T13:50:16.333Z,99279.55
2022-09-12T13:52:51.806Z,99277.99
2022-09-12T13:55:34.428Z,99273.45
2022-09-12T13:58:14.834Z,99268.91
2022-09-12T14:00:42.215Z,99280.41
2022-09-12T14:03:58.923Z,99274.39
2022-09-12T14:06:27.429Z,99282.98
2022-09-12T14:09:00.834Z,99277.79
2022-09-12T14:11:30.589Z,99280.92
2022-09-12T14:13:58.038Z,99287.13
2022-09-12T14:16:28.509Z,99282.20
2022-09-12T14:18:56.641Z,99281.33
2022-09-12T14:21:35.905Z,99284.23
2022-09-12T14:24:08.071Z,99288.27
2022-09-12T14:26:40.692Z,99285.95
2022-09-12T14:29:08.733Z,99288.23
2022-09-12T14:31:38.940Z,99284.13
2022-09-12T14:34:17.365Z,99288.81
2022-09-12T14:36:54.605Z,99285.35
2022-09-12T14:39:42.736Z,99279.16
2022-09-12T14:42:26.617Z,99275.00
2022-09-12T14:45:02.175Z,99281.56
2022-09-12T14:47:38.575Z,99285.20
2022-09-12T14:50:17.060Z,99287.86
2022-09-12T14:52:44.131Z,99292.02
2022-09-12T14:55:33.760Z,99295.23
2022-09-12T14:58:27.176Z,99301.59
2022-09-12T15:01:02.471Z,99308.41
2022-09-12T15:03:33.397Z,99308.20
2022-09-12T15:06:03.685Z,99305.59
2022-09-12T15:08:31.918Z,99302.94
2022-09-12T15:10:59.889Z,99301.14
2022-09-12T15:13:29.785Z,99301.96
2022-09-12T15:15:59.443Z,99299.05
2022-09-12T15:18:28.706Z,99298.98
2022-09-12T15:21:02.087Z,99298.71
2022-09-12T15:23:50.444Z,99297.02
2022-09-12T15:26:24.138Z,99291.33
2022-09-12T15:28:51.644Z,99288.67
2022-09-12T15:31:26.197Z,99292.30
2022-09-12T15:33:55.006Z,99290.63
2022-09-12T15:36:23.691Z,99294.09
2022-09-12T15:38:52.224Z,99295.94
2022-09-12T15:41:21.872Z,99296.59
2022-09-12T15:43:49.910Z,99297.45
2022-09-12T15:46:18.152Z,99294.08
2022-09-12T15:48:45.719Z,99291.20
2022-09-12T15:51:19.970Z,99294.79
2022-09-12T15:53:49.969Z,99300.47
2022-09-12T15:56:20.737Z,99294.61
2022-09-12T15:58:58.803Z,99293.30
2022-09-12T16:01:28.852Z,99294.02
2022-09-12T16:03:55.946Z,99297.20
2022-09-12T16:06:23.636Z,99298.81
2022-09-12T16:08:51.146Z,99299.34
2022-09-12T16:11:26.956Z,99300.42
2022-09-12T16:13:56.333Z,99303.72
2022-09-12T16:16:23.990Z,99299.11
2022-09-12T16:18:51.157Z,99301.38
2022-09-12T16:21:18.313Z,99313.58
2022-09-12T16:23:47.203Z,99303.44
2022-09-12T16:26:15.311Z,99312.54
2022-09-12T16:28:42.860Z,99310.58
2022-09-12T16:31:13.483Z,99314.29
2022-09-12T16:33:40.921Z,99320.29
2022-09-12T16:36:15.540Z,99325.39
2022-09-12T16:38:50.821Z,99327.39
2022-09-12T16:41:21.568Z,99329.29
2022-09-12T16:43:48.669Z,99329.78
2022-09-12T16:46:20.231Z,99332.36
2022-09-12T16:48:54.038Z,99329.99
2022-09-12T16:51:30.032Z,99331.41
2022-09-12T16:53:57.927Z,99331.55
2022-09-12T16:56:25.136Z,99337.14
2022-09-12T16:58:53.553Z,99338.30
2022-09-12T17:01:24.592Z,99336.44
2022-09-12T17:03:56.977Z,99332.56
2022-09-12T17:06:25.764Z,99332.87
2022-09-12T17:08:58.459Z,99339.73
2022-09-12T17:11:31.990Z,99338.17
2022-09-12T17:14:05.072Z,99336.56
2022-09-12T17:16:37.936Z,99340.71
2022-09-12T17:19:06.551Z,99340.34
2022-09-12T17:21:34.842Z,99346.70
2022-09-12T17:24:03.622Z,99348.72
2022-09-12T17:26:31.292Z,99350.95
2022-09-12T17:28:58.544Z,99352.79
2022-09-12T17:31:26.133Z,99357.52
2022-09-12T17:34:01.209Z,99352.64
2022-09-12T17:36:31.561Z,99342.98
2022-09-12T17:38:59.579Z,99342.14
2022-09-12T17:41:31.277Z,99343.58
2022-09-12T17:44:01.114Z,99342.83
2022-09-12T17:46:35.606Z,99349.58
2022-09-12T17:49:08.169Z,99347.04
2022-09-12T17:51:35.877Z,99347.74
2022-09-12T17:54:08.112Z,99350.02
2022-09-12T17:56:36.621Z,99353.47
2022-09-12T17:59:06.582Z,99356.39
2022-09-12T18:01:52.762Z,99352.92
2022-09-12T18:04:20.354Z,99347.52
2022-09-12T18:06:48.715Z,99350.70
2022-09-12T18:09:21.904Z,99346.11
2022-09-12T18:11:50.386Z,99346.09
2022-09-12T18:14:18.749Z,99345.19
2022-09-12T18:16:47.350Z,99348.93
2022-09-12T18:19:15.570Z,99345.48
2022-09-12T18:21:43.025Z,99347.94
2022-09-12T18:24:11.148Z,99340.21
2022-09-12T18:26:38.707Z,99343.77
2022-09-12T18:29:06.346Z,99343.82
2022-09-12T18:31:34.278Z,99341.16
2022-09-12T18:34:02.254Z,99342.80
2022-09-12T18:36:30.327Z,99350.73
2022-09-12T18:38:59.073Z,99347.20
2022-09-12T18:41:28.365Z,99346.99
2022-09-12T18:43:58.344Z,99349.08
2022-09-12T18:46:27.076Z,99346.39
2022-09-12T18:48:58.776Z,99350.11
2022-09-12T18:51:34.240Z,99348.30
2022-09-12T18:54:08.282Z,99356.25
2022-09-12T18:56:38.037Z,99352.42
2022-09-12T18:59:07.083Z,99351.33
2022-09-12T19:01:36.971Z,99349.92
2022-09-12T19:04:04.649Z,99355.38
2022-09-12T19:06:38.570Z,99347.34
2022-09-12T19:09:08.635Z,99346.84
2022-09-12T19:11:38.856Z,99350.12
2022-09-12T19:14:07.350Z,99352.66
2022-09-12T19:16:35.152Z,99345.20
2022-09-12T19:19:02.737Z,99350.09
2022-09-12T19:21:32.449Z,99342.91
2022-09-12T19:24:04.987Z,99339.90
2022-09-12T19:26:33.635Z,99341.88
2022-09-12T19:29:02.519Z,99339.27
2022-09-12T19:31:31.117Z,99340.08
2022-09-12T19:34:07.418Z,99336.04
2022-09-12T19:36:50.397Z,99337.23
2022-09-12T19:39:19.129Z,99348.80
2022-09-12T19:41:47.874Z,99334.77
2022-09-12T19:44:15.120Z,99338.61
2022-09-12T19:46:42.475Z,99335.23
2022-09-12T19:49:11.855Z,99330.14
2022-09-12T19:51:39.173Z,99333.80
2022-09-12T19:54:07.349Z,99328.71
2022-09-12T19:56:35.004Z,99324.40
2022-09-12T19:59:02.407Z,99322.94
2022-09-12T20:01:29.627Z,99325.37
2022-09-12T20:03:58.472Z,99321.38
2022-09-12T20:06:26.855Z,99320.94
2022-09-12T20:08:55.465Z,99317.80
2022-09-12T20:11:23.893Z,99319.09
2022-09-12T20:13:51.623Z,99317.17
2022-09-12T20:16:26.075Z,99317.77
2022-09-12T20:19:03.873Z,99319.06
2022-09-12T20:21:33.590Z,99314.79
2022-09-12T20:24:13.439Z,99318.71
2022-09-12T20:26:41.773Z,99320.46
2022-09-12T20:29:09.684Z,99324.95
2022-09-12T20:31:39.103Z,99331.96
2022-09-12T20:34:07.515Z,99325.58
2022-09-12T20:36:34.612Z,99329.42
2022-09-12T20:39:03.657Z,99331.00
2022-09-12T20:41:34.828Z,99329.46
2022-09-12T20:44:02.154Z,99328.89
2022-09-12T20:46:29.495Z,99330.84
2022-09-12T20:48:58.256Z,99326.84
2022-09-12T20:51:26.238Z,99327.17
2022-09-12T20:53:55.348Z,99330.34
2022-09-12T20:56:24.506Z,99329.04
2022-09-12T20:58:51.613Z,99326.45
2022-09-12T21:01:20.170Z,99326.32
2022-09-12T21:03:48.247Z,99326.01
2022-09-12T21:06:16.501Z,99325.33
2022-09-12T21:08:44.963Z,99320.61
2022-09-12T21:11:13.826Z,99317.77
2022-09-12T21:13:40.972Z,99318.63
2022-09-12T21:16:17.482Z,99319.61
2022-09-12T21:18:45.191Z,99318.24
2022-09-12T21:21:15.291Z,99318.33
2022-09-12T21:23:42.646Z,99323.02
2022-09-12T21:26:10.608Z,99322.52
2022-09-12T21:28:38.087Z,99318.86
2022-09-12T21:31:05.889Z,99316.33
2022-09-12T21:33:33.196Z,99317.34
2022-09-12T21:36:05.777Z,99314.64
2022-09-12T21:38:34.048Z,99316.82
2022-09-12T21:41:10.265Z,99314.05
2022-09-12T21:43:38.156Z,99312.71
2022-09-12T21:46:06.573Z,99313.81
2022-09-12T21:48:35.112Z,99311.15
2022-09-12T21:51:03.069Z,99313.02
2022-09-12T21:53:30.642Z,99310.65
2022-09-12T21:56:04.857Z,99312.93
2022-09-12T21:58:32.236Z,99310.63
2022-09-12T22:01:00.831Z,99311.70
2022-09-12T22:03:31.216Z,99312.22
2022-09-12T22:06:01.204Z,99311.42
2022-09-12T22:08:29.673Z,99307.04
2022-09-12T22:11:02.892Z,99309.60
2022-09-12T22:13:31.598Z,99311.23
2022-09-12T22:16:02.332Z,99310.16
2022-09-12T22:18:32.954Z,99306.03
2022-09-12T22:21:07.202Z,99304.61
2022-09-12T22:23:53.200Z,99302.01
2022-09-12T22:26:20.472Z,99307.42
2022-09-12T22:28:48.671Z,99304.69
2022-09-12T22:31:16.989Z,99303.96
2022-09-12T22:33:45.073Z,99304.65
2022-09-12T22:36:13.036Z,99302.67
2022-09-12T22:38:40.461Z,99312.91
2022-09-12T22:41:11.330Z,99307.42
2022-09-12T22:43:38.739Z,99306.63
2022-09-12T22:46:09.014Z,99305.86
2022-09-12T22:48:37.297Z,99305.43
2022-09-12T22:51:05.559Z,99304.72
2022-09-12T22:53:33.993Z,99303.91
2022-09-12T22:56:02.100Z,99303.61
2022-09-12T22:58:29.365Z,99300.89
2022-09-12T23:00:56.419Z,99298.45
2022-09-12T23:03:23.826Z,99301.91
2022-09-12T23:05:51.179Z,99301.75
2022-09-12T23:08:18.957Z,99300.08
2022-09-12T23:10:46.282Z,99300.85
2022-09-12T23:13:13.490Z,99301.27
2022-09-12T23:15:41.057Z,99302.30
2022-09-12T23:18:08.460Z,99305.68
2022-09-12T23:20:35.530Z,99298.61
2022-09-12T23:23:02.968Z,99301.94
2022-09-12T23:25:30.626Z,99294.66
2022-09-12T23:27:58.125Z,99297.90
2022-09-12T23:30:25.434Z,99295.19
2022-09-12T23:32:52.615Z,99294.08
2022-09-12T23:35:19.772Z,99289.48
2022-09-12T23:37:47.390Z,99289.00
2022-09-12T23:40:14.832Z,99286.02
2022-09-12T23:42:42.009Z,99286.90
2022-09-12T23:45:09.984Z,99282.61
2022-09-12T23:47:37.252Z,99280.13
2022-09-12T23:50:04.744Z,99279.86
2022-09-12T23:52:31.844Z,99285.53
2022-09-12T23:54:58.930Z,99281.31
2022-09-12T23:57:26.074Z,99277.89
2022-09-12T23:59:53.482Z,99278.03
